createdAt,value
2023-03-30T00:00:58.052Z,-0.20
2023-03-30T00:03:28.486Z,-0.30
2023-03-30T00:05:58.654Z,-0.30
2023-03-30T00:08:29.305Z,-0.30
2023-03-30T00:11:08.524Z,-0.30
2023-03-30T00:13:36.709Z,-0.30
2023-03-30T00:18:35.096Z,-0.40
2023-03-30T00:21:03.041Z,-0.40
2023-03-30T00:23:31.144Z,-0.30
2023-03-30T00:25:58.414Z,-0.30
2023-03-30T00:28:30.343Z,-0.30
2023-03-30T00:30:58.873Z,-0.30
2023-03-30T00:33:41.492Z,-0.30
2023-03-30T00:36:11.805Z,-0.30
2023-03-30T00:38:41.004Z,-0.30
2023-03-30T00:41:09.611Z,-0.30
2023-03-30T00:43:54.699Z,-0.40
2023-03-30T00:46:23.417Z,-0.40
2023-03-30T00:48:50.933Z,-0.50
2023-03-30T00:51:18.700Z,-0.60
2023-03-30T00:53:47.772Z,-0.60
2023-03-30T00:56:16.227Z,-0.60
2023-03-30T00:58:44.922Z,-0.70
2023-03-30T01:01:13.401Z,-0.70
2023-03-30T01:03:46.886Z,-0.70
2023-03-30T01:06:18.230Z,-0.70
2023-03-30T01:08:45.620Z,-0.70
2023-03-30T01:11:12.627Z,-0.60
2023-03-30T01:13:44.636Z,-0.70
2023-03-30T01:16:13.325Z,-0.70
2023-03-30T01:18:59.182Z,-0.70
2023-03-30T01:21:45.809Z,-0.70
2023-03-30T01:24:20.273Z,-0.70
2023-03-30T01:26:53.597Z,-0.80
2023-03-30T01:29:27.574Z,-0.80
2023-03-30T01:32:12.982Z,-0.80
2023-03-30T01:34:52.924Z,-0.80
2023-03-30T01:37:38.738Z,-0.80
2023-03-30T01:40:13.243Z,-0.80
2023-03-30T01:42:46.522Z,-0.80
2023-03-30T01:45:22.718Z,-0.80
2023-03-30T01:48:08.329Z,-0.80
2023-03-30T01:50:40.247Z,-0.80
2023-03-30T01:53:18.439Z,-0.80
2023-03-30T01:56:00.685Z,-0.80
2023-03-30T01:58:33.706Z,-0.70
2023-03-30T02:01:02.586Z,-0.70
2023-03-30T02:03:31.896Z,-0.70
2023-03-30T02:06:16.064Z,-0.70
2023-03-30T02:08:43.776Z,-0.60
2023-03-30T02:11:11.815Z,-0.60
2023-03-30T02:13:40.983Z,-0.60
2023-03-30T02:16:16.571Z,-0.60
2023-03-30T02:18:45.718Z,-0.60
2023-03-30T02:21:13.182Z,-0.60
2023-03-30T02:23:42.593Z,-0.60
2023-03-30T02:26:12.002Z,-0.50
2023-03-30T02:28:39.198Z,-0.50
2023-03-30T02:31:12.177Z,-0.50
2023-03-30T02:33:42.624Z,-0.50
2023-03-30T02:36:10.160Z,-0.50
2023-03-30T02:38:40.960Z,-0.40
2023-03-30T02:41:31.371Z,-0.40
2023-03-30T02:44:08.569Z,-0.40
2023-03-30T02:46:49.290Z,-0.40
2023-03-30T02:49:26.200Z,-0.40
2023-03-30T02:52:01.791Z,-0.30
2023-03-30T02:54:44.939Z,-0.30
2023-03-30T02:57:33.052Z,-0.30
2023-03-30T03:00:30.250Z,-0.30
2023-03-30T03:03:00.286Z,-0.30
2023-03-30T03:05:32.612Z,-0.30
2023-03-30T03:08:19.025Z,-0.20
2023-03-30T03:10:48.846Z,-0.20
2023-03-30T03:13:17.398Z,-0.20
2023-03-30T03:15:46.516Z,-0.10
2023-03-30T03:18:13.991Z,-0.10
2023-03-30T03:20:42.653Z,-0.10
2023-03-30T03:23:10.105Z,-0.10
2023-03-30T03:25:45.573Z,-0.10
2023-03-30T03:28:15.103Z,-0.10
2023-03-30T03:30:46.531Z,-0.10
2023-03-30T03:33:23.615Z,0.00
2023-03-30T03:36:16.703Z,0.00
2023-03-30T03:38:52.358Z,0.00
2023-03-30T03:41:19.844Z,0.00
2023-03-30T03:43:47.754Z,0.10
2023-03-30T03:46:16.746Z,0.10
2023-03-30T03:48:44.762Z,0.10
2023-03-30T03:51:11.906Z,0.20
2023-03-30T03:53:39.336Z,0.20
2023-03-30T03:56:10.131Z,0.20
2023-03-30T03:58:37.645Z,0.20
2023-03-30T04:01:04.924Z,0.20
2023-03-30T04:03:32.291Z,0.20
2023-03-30T04:06:00.652Z,0.30
2023-03-30T04:08:28.934Z,0.30
2023-03-30T04:11:08.206Z,0.30
2023-03-30T04:13:55.676Z,0.30
2023-03-30T04:17:00.115Z,0.30
2023-03-30T04:19:42.189Z,0.40
2023-03-30T04:22:33.784Z,0.30
2023-03-30T04:25:22.759Z,0.40
2023-03-30T04:28:11.806Z,0.40
2023-03-30T04:31:14.558Z,0.40
2023-03-30T04:34:21.998Z,0.50
2023-03-30T04:37:04.372Z,0.50
2023-03-30T04:39:44.106Z,0.50
2023-03-30T04:42:37.642Z,0.50
2023-03-30T04:45:43.136Z,0.60
2023-03-30T04:48:26.495Z,0.60
2023-03-30T04:51:11.910Z,0.60
2023-03-30T04:54:08.401Z,0.60
2023-03-30T04:56:44.400Z,0.60
2023-03-30T04:59:24.501Z,0.60
2023-03-30T05:01:51.569Z,0.60
2023-03-30T05:04:35.640Z,0.60
2023-03-30T05:07:21.797Z,0.60
2023-03-30T05:09:57.683Z,0.60
2023-03-30T05:12:43.030Z,0.70
2023-03-30T05:15:30.856Z,0.60
2023-03-30T05:18:10.051Z,0.60
2023-03-30T05:21:09.387Z,0.60
2023-03-30T05:23:57.373Z,0.60
2023-03-30T05:26:54.050Z,0.60
2023-03-30T05:29:24.410Z,0.60
2023-03-30T05:32:12.372Z,0.60
2023-03-30T05:34:59.584Z,0.60
2023-03-30T05:37:50.079Z,0.60
2023-03-30T05:40:40.127Z,0.60
2023-03-30T05:43:30.643Z,0.70
2023-03-30T05:46:17.956Z,0.70
2023-03-30T05:48:58.494Z,0.70
2023-03-30T05:51:41.926Z,0.70
2023-03-30T05:54:28.033Z,0.70
2023-03-30T05:57:04.281Z,0.70
2023-03-30T05:59:51.554Z,0.70
2023-03-30T06:02:37.089Z,0.80
2023-03-30T06:05:08.658Z,0.80
2023-03-30T06:07:37.578Z,0.80
2023-03-30T06:10:06.210Z,0.80
2023-03-30T06:12:33.836Z,0.80
2023-03-30T06:15:03.415Z,0.80
2023-03-30T06:17:57.711Z,0.80
2023-03-30T06:20:26.210Z,0.80
2023-03-30T06:22:53.713Z,0.80
2023-03-30T06:25:24.742Z,0.90
2023-03-30T06:27:53.642Z,0.80
2023-03-30T06:30:21.343Z,0.80
2023-03-30T06:32:52.204Z,0.80
2023-03-30T06:35:33.570Z,0.80
2023-03-30T06:38:01.586Z,0.80
2023-03-30T06:40:28.910Z,0.90
2023-03-30T06:42:58.089Z,0.90
2023-03-30T06:45:37.712Z,0.90
2023-03-30T06:48:06.645Z,1.00
2023-03-30T06:50:36.876Z,1.00
2023-03-30T06:53:08.619Z,1.00
2023-03-30T06:55:42.868Z,1.10
2023-03-30T06:58:15.520Z,1.10
2023-03-30T07:00:42.857Z,1.10
2023-03-30T07:03:30.089Z,1.20
2023-03-30T07:06:12.509Z,1.20
2023-03-30T07:08:40.530Z,1.20
2023-03-30T07:11:11.086Z,1.30
2023-03-30T07:13:40.232Z,1.30
2023-03-30T07:16:08.193Z,1.40
2023-03-30T07:18:35.397Z,1.40
2023-03-30T07:21:04.935Z,1.50
2023-03-30T07:23:40.777Z,1.50
2023-03-30T07:26:09.924Z,1.50
2023-03-30T07:28:52.939Z,1.60
